Time;durP1;ratioP1;P1;durP2;ratioP2;P2;SDS_P1;SDS_P2;PMS_P1;PMS_P2;Temp;Humidity;BMP_temperature;BMP_pressure;BME280_temperature;BME280_humidity;BME280_pressure;Samples;Min_cycle;Max_cycle;Signal;HPM_P1;HPM_P2
2022/03/24 00:00:49;;;;;;;65.90;32.80;;;;;;;4.09;46.48;101426.42;106022;1268;22550;-54
2022/03/24 00:03:24;;;;;;;70.40;32.40;;;;;;;4.03;46.55;101424.17;106001;1268;23088;-55
2022/03/24 00:05:55;;;;;;;67.20;31.10;;;;;;;3.99;46.69;101422.08;106051;1268;22556;-55
2022/03/24 00:08:27;;;;;;;70.80;31.50;;;;;;;3.98;46.74;101422.55;106092;1268;24356;-54
2022/03/24 00:10:59;;;;;;;75.50;33.90;;;;;;;3.95;46.79;101417.14;106200;1268;22559;-55
2022/03/24 00:13:31;;;;;;;74.80;34.60;;;;;;;3.90;46.94;101420.31;106172;1268;22543;-54
2022/03/24 00:16:03;;;;;;;74.40;34.00;;;;;;;3.85;47.00;101417.27;106108;1267;22658;-53
2022/03/24 00:18:34;;;;;;;70.90;34.50;;;;;;;3.80;47.11;101420.95;106303;1268;23240;-54
2022/03/24 00:21:06;;;;;;;72.10;33.90;;;;;;;3.78;47.13;101419.69;106198;1268;22525;-53
2022/03/24 00:23:37;;;;;;;68.70;33.20;;;;;;;3.76;47.18;101422.39;106007;1268;23067;-56
2022/03/24 00:26:09;;;;;;;66.50;31.90;;;;;;;3.70;47.43;101423.61;106061;1268;25645;-53
2022/03/24 00:28:40;;;;;;;78.60;35.80;;;;;;;3.58;47.64;101423.59;106047;1268;24236;-54
2022/03/24 00:31:12;;;;;;;70.20;33.40;;;;;;;3.48;47.76;101422.95;106001;1268;22531;-54
2022/03/24 00:33:44;;;;;;;78.20;36.90;;;;;;;3.42;47.96;101421.02;106186;1268;26649;-55
2022/03/24 00:36:16;;;;;;;73.50;35.60;;;;;;;3.35;48.22;101416.14;106078;1267;22526;-55
2022/03/24 00:38:52;;;;;;;85.30;37.80;;;;;;;3.30;48.29;101418.20;106270;1268;22557;-55
2022/03/24 00:41:24;;;;;;;74.00;36.70;;;;;;;3.24;48.30;101415.48;106298;1268;24438;-55
2022/03/24 00:43:57;;;;;;;74.50;35.30;;;;;;;3.22;48.27;101421.80;105979;1268;22715;-56
2022/03/24 00:46:31;;;;;;;83.40;38.20;;;;;;;3.21;48.24;101418.25;106033;1268;22545;-55
2022/03/24 00:49:02;;;;;;;81.60;35.50;;;;;;;3.19;48.41;101414.41;105926;1268;24318;-53
2022/03/24 00:51:34;;;;;;;73.40;37.30;;;;;;;3.15;48.35;101416.08;106115;1268;25297;-56
2022/03/24 00:54:07;;;;;;;75.90;35.60;;;;;;;3.12;48.52;101416.79;106116;1268;23251;-56
2022/03/24 00:56:39;;;;;;;75.20;35.90;;;;;;;3.06;48.59;101412.41;106109;1268;24283;-54
2022/03/24 00:59:11;;;;;;;73.80;37.40;;;;;;;3.01;48.62;101414.23;106096;1268;25627;-53
2022/03/24 01:01:42;;;;;;;74.80;35.60;;;;;;;2.98;48.69;101416.29;106055;1268;26612;-53
2022/03/24 01:04:14;;;;;;;72.30;35.90;;;;;;;2.96;48.73;101410.64;106053;1268;25309;-56
2022/03/24 01:06:45;;;;;;;74.80;37.10;;;;;;;2.94;48.90;101413.71;106170;1268;25366;-55
2022/03/24 01:09:16;;;;;;;71.20;35.60;;;;;;;2.90;49.01;101414.27;106184;1268;24121;-54
2022/03/24 01:11:48;;;;;;;74.90;36.90;;;;;;;2.86;49.02;101411.52;105995;1268;22647;-53
2022/03/24 01:14:19;;;;;;;80.40;37.40;;;;;;;2.82;49.17;101412.09;106088;1267;23744;-55
2022/03/24 01:16:51;;;;;;;84.30;37.60;;;;;;;2.79;49.08;101415.88;106142;1268;23702;-55
2022/03/24 01:19:22;;;;;;;85.50;37.60;;;;;;;2.78;49.39;101415.40;106072;1268;22544;-53
2022/03/24 01:21:54;;;;;;;77.70;36.40;;;;;;;2.74;49.77;101419.43;106065;1268;22595;-53
2022/03/24 01:24:26;;;;;;;81.40;40.70;;;;;;;2.69;49.71;101417.95;106023;1267;24055;-55
2022/03/24 01:26:58;;;;;;;82.40;40.70;;;;;;;2.64;49.76;101411.58;106151;1268;23027;-56
2022/03/24 01:29:31;;;;;;;90.00;39.90;;;;;;;2.61;49.73;101415.13;106294;1268;22523;-56
2022/03/24 01:32:03;;;;;;;86.30;42.50;;;;;;;2.57;49.72;101415.68;106143;1268;22603;-56
2022/03/24 01:34:36;;;;;;;87.60;38.80;;;;;;;2.54;50.01;101415.69;106145;1268;24423;-53
2022/03/24 01:37:08;;;;;;;86.10;43.00;;;;;;;2.49;50.12;101414.11;106128;1268;22846;-53
2022/03/24 01:39:39;;;;;;;77.00;39.20;;;;;;;2.46;50.05;101410.34;106100;1268;24431;-56
2022/03/24 01:42:11;;;;;;;86.70;39.70;;;;;;;2.41;50.15;101413.82;106122;1268;22520;-56
2022/03/24 01:44:46;;;;;;;80.50;38.90;;;;;;;2.37;50.42;101413.96;106091;1268;22625;-53
2022/03/24 01:47:18;;;;;;;83.60;39.30;;;;;;;2.33;50.44;101414.77;106157;1268;24238;-54
2022/03/24 01:49:50;;;;;;;82.30;41.40;;;;;;;2.28;50.67;101418.08;106176;1267;24363;-55
2022/03/24 01:52:24;;;;;;;84.70;40.40;;;;;;;2.21;50.78;101412.95;105978;1268;22605;-55
2022/03/24 01:54:57;;;;;;;91.40;41.80;;;;;;;2.13;51.07;101409.09;106016;1268;24237;-52
2022/03/24 01:57:31;;;;;;;79.20;39.00;;;;;;;2.08;51.09;101410.98;106112;1268;25283;-55
2022/03/24 02:00:02;;;;;;;89.30;41.60;;;;;;;2.03;51.20;101412.88;106165;1268;22550;-55
2022/03/24 02:02:34;;;;;;;85.50;43.60;;;;;;;1.98;51.19;101410.35;106349;1268;24349;-53
2022/03/24 02:05:06;;;;;;;87.90;42.00;;;;;;;1.93;51.46;101411.14;106176;1268;24329;-55
2022/03/24 02:07:40;;;;;;;90.40;42.20;;;;;;;1.88;51.41;101412.63;106274;1268;22524;-53
2022/03/24 02:10:13;;;;;;;95.50;44.20;;;;;;;1.84;51.54;101406.33;106122;1268;26765;-53
2022/03/24 02:12:44;;;;;;;89.70;41.30;;;;;;;1.79;51.71;101411.12;106247;1268;22554;-53
2022/03/24 02:15:18;;;;;;;86.30;41.40;;;;;;;1.77;51.68;101411.67;106055;1268;22746;-53
2022/03/24 02:17:50;;;;;;;88.00;39.80;;;;;;;1.75;51.62;101409.08;105965;1268;25518;-54
2022/03/24 02:20:21;;;;;;;81.30;40.40;;;;;;;1.73;51.85;101407.98;106012;1268;22621;-55
2022/03/24 02:22:53;;;;;;;91.10;41.10;;;;;;;1.70;51.82;101408.66;106030;1268;22546;-52
2022/03/24 02:25:28;;;;;;;88.50;41.90;;;;;;;1.67;52.00;101412.20;106044;1268;22535;-52
2022/03/24 02:27:59;;;;;;;87.00;41.90;;;;;;;1.65;51.88;101415.58;105996;1268;25325;-55
2022/03/24 02:30:31;;;;;;;85.60;43.10;;;;;;;1.62;51.97;101413.22;106002;1268;24406;-53
2022/03/24 02:33:03;;;;;;;81.70;40.90;;;;;;;1.59;52.03;101418.63;106081;1268;25408;-54
2022/03/24 02:35:34;;;;;;;77.50;39.60;;;;;;;1.57;52.05;101418.55;105977;1268;26776;-55
2022/03/24 02:38:07;;;;;;;83.00;41.70;;;;;;;1.54;52.28;101417.67;106033;1268;25540;-54
2022/03/24 02:40:39;;;;;;;92.00;41.90;;;;;;;1.50;52.39;101429.30;105981;1268;26938;-53
2022/03/24 02:43:10;;;;;;;89.10;43.30;;;;;;;1.46;52.55;101430.93;106016;1267;22603;-54
2022/03/24 02:45:41;;;;;;;84.50;43.10;;;;;;;1.42;52.65;101433.59;106069;1268;22533;-58
2022/03/24 02:48:14;;;;;;;94.40;44.80;;;;;;;1.38;52.76;101435.94;106100;1268;24428;-56
2022/03/24 02:50:45;;;;;;;87.40;43.20;;;;;;;1.34;52.72;101432.87;106144;1268;25520;-57
2022/03/24 02:53:17;;;;;;;87.00;41.40;;;;;;;1.30;52.65;101435.44;106127;1267;24289;-55
2022/03/24 02:55:48;;;;;;;90.50;44.50;;;;;;;1.28;52.77;101435.03;106022;1268;22552;-53
2022/03/24 02:58:19;;;;;;;92.10;44.20;;;;;;;1.25;52.95;101439.20;106028;1267;22684;-56
2022/03/24 03:00:51;;;;;;;93.70;41.50;;;;;;;1.21;53.15;101438.39;106087;1267;22762;-55
2022/03/24 03:03:24;;;;;;;91.70;45.00;;;;;;;1.14;53.41;101439.31;106067;1268;22547;-54
2022/03/24 03:05:57;;;;;;;88.90;42.60;;;;;;;1.10;53.44;101441.80;106053;1268;25710;-53
2022/03/24 03:08:28;;;;;;;93.80;43.40;;;;;;;1.05;53.26;101439.17;106188;1268;26105;-53
2022/03/24 03:11:00;;;;;;;96.70;44.60;;;;;;;1.03;53.29;101441.30;106085;1267;22582;-53
2022/03/24 03:13:31;;;;;;;96.20;44.00;;;;;;;1.01;53.29;101441.45;106080;1268;22570;-53
2022/03/24 03:16:03;;;;;;;96.00;43.70;;;;;;;0.98;53.16;101441.59;106145;1268;22739;-55
2022/03/24 03:18:35;;;;;;;92.30;43.90;;;;;;;0.96;53.49;101445.04;106047;1268;25550;-54
2022/03/24 03:21:06;;;;;;;95.10;44.00;;;;;;;0.93;53.46;101444.15;106151;1268;26878;-55
2022/03/24 03:23:39;;;;;;;89.30;44.40;;;;;;;0.91;53.43;101444.60;106014;1268;23132;-54
2022/03/24 03:26:11;;;;;;;92.50;43.40;;;;;;;0.89;53.40;101443.65;106088;1268;22710;-55
2022/03/24 03:28:44;;;;;;;91.90;41.90;;;;;;;0.87;53.46;101444.67;106025;1268;22763;-53
2022/03/24 03:31:15;;;;;;;90.30;43.80;;;;;;;0.86;53.66;101442.77;106077;1265;22608;-54
2022/03/24 03:33:48;;;;;;;94.60;43.20;;;;;;;0.82;53.73;101440.00;106124;1268;22624;-55
2022/03/24 03:36:19;;;;;;;92.60;43.60;;;;;;;0.78;53.98;101441.71;106071;1268;22555;-55
2022/03/24 03:38:51;;;;;;;87.90;41.50;;;;;;;0.75;54.10;101437.53;105929;1268;22555;-53
2022/03/24 03:41:22;;;;;;;95.70;41.90;;;;;;;0.73;54.00;101438.92;106013;1268;23272;-56
2022/03/24 03:43:55;;;;;;;97.40;43.00;;;;;;;0.70;54.06;101439.38;106001;1267;24283;-55
2022/03/24 03:46:26;;;;;;;89.00;43.20;;;;;;;0.68;54.17;101445.48;105994;1268;22913;-56
2022/03/24 03:48:58;;;;;;;92.50;42.80;;;;;;;0.64;54.28;101442.72;106006;1268;24241;-56
2022/03/24 03:51:30;;;;;;;94.70;47.60;;;;;;;0.61;54.47;101443.24;105951;1268;22547;-56
2022/03/24 03:54:01;;;;;;;86.10;40.90;;;;;;;0.57;54.52;101442.98;106060;1267;23370;-56
2022/03/24 03:56:34;;;;;;;90.90;42.30;;;;;;;0.54;54.52;101442.02;106192;1267;22584;-56
2022/03/24 03:59:06;;;;;;;90.20;42.20;;;;;;;0.53;54.60;101448.54;106203;1268;22713;-56
2022/03/24 04:01:37;;;;;;;85.40;41.90;;;;;;;0.51;54.59;101444.27;106092;1268;22742;-55
2022/03/24 04:04:12;;;;;;;98.10;45.20;;;;;;;0.49;54.64;101445.67;106013;1268;25594;-54
2022/03/24 04:06:43;;;;;;;93.40;42.70;;;;;;;0.47;54.68;101444.17;106062;1268;25569;-54
2022/03/24 04:09:15;;;;;;;94.00;42.70;;;;;;;0.46;55.04;101450.13;106179;1268;24266;-54
2022/03/24 04:11:46;;;;;;;86.00;43.60;;;;;;;0.43;55.15;101451.11;106066;1267;22551;-56
2022/03/24 04:14:18;;;;;;;98.70;45.40;;;;;;;0.39;55.32;101451.80;106475;1268;26083;-54
2022/03/24 04:16:50;;;;;;;98.70;45.00;;;;;;;0.37;55.15;101454.23;106785;1268;23983;-56
2022/03/24 04:19:25;;;;;;;96.80;44.60;;;;;;;0.35;55.49;101451.91;106571;1268;24199;-56
2022/03/24 04:21:57;;;;;;;95.40;44.90;;;;;;;0.31;55.61;101456.76;106745;1267;22569;-53
2022/03/24 04:24:29;;;;;;;94.90;43.20;;;;;;;0.28;55.52;101455.09;106698;1268;25661;-53
2022/03/24 04:27:01;;;;;;;94.70;43.20;;;;;;;0.26;55.69;101459.07;106691;1268;22709;-56
2022/03/24 04:29:32;;;;;;;97.90;43.40;;;;;;;0.23;55.93;101463.52;106878;1268;22702;-56
2022/03/24 04:32:04;;;;;;;95.50;44.20;;;;;;;0.19;56.02;101462.31;106743;1268;25980;-55
2022/03/24 04:34:35;;;;;;;92.60;41.20;;;;;;;0.14;56.25;101463.36;106759;1268;24289;-56
2022/03/24 04:37:07;;;;;;;93.00;41.40;;;;;;;0.09;56.22;101462.84;106706;1268;23279;-57
2022/03/24 04:39:39;;;;;;;92.30;44.70;;;;;;;0.05;56.32;101467.52;106738;1268;22652;-58
2022/03/24 04:42:11;;;;;;;96.90;43.70;;;;;;;0.02;56.32;101470.23;106759;1268;22857;-57
2022/03/24 04:44:43;;;;;;;93.60;42.00;;;;;;;0.02;56.21;101471.25;106786;1268;22696;-58
2022/03/24 04:47:15;;;;;;;93.90;42.50;;;;;;;0.02;56.39;101476.74;106814;1268;22697;-54
2022/03/24 04:49:47;;;;;;;103.20;45.60;;;;;;;0.03;56.32;101480.13;106747;1268;25576;-54
2022/03/24 04:52:19;;;;;;;99.00;44.10;;;;;;;0.01;56.35;101479.24;106796;1268;22695;-56
2022/03/24 04:54:51;;;;;;;91.60;42.50;;;;;;;-0.00;56.59;101482.05;106672;1268;24161;-55
2022/03/24 04:57:24;;;;;;;101.10;41.70;;;;;;;-0.01;56.73;101482.05;106622;1268;25544;-53
2022/03/24 04:59:56;;;;;;;98.00;44.10;;;;;;;0.00;56.68;101486.54;106841;1268;22705;-55
2022/03/24 05:02:28;;;;;;;87.90;41.60;;;;;;;0.02;56.78;101489.44;106769;1267;25571;-54
2022/03/24 05:04:59;;;;;;;101.10;44.00;;;;;;;0.02;57.12;101487.41;106720;1267;25902;-56
2022/03/24 05:07:30;;;;;;;85.20;40.80;;;;;;;0.02;57.20;101495.02;106615;1267;25580;-57
2022/03/24 05:10:02;;;;;;;89.40;41.50;;;;;;;0.02;57.36;101497.38;106665;1268;24221;-56
2022/03/24 05:12:34;;;;;;;96.70;44.10;;;;;;;0.02;57.38;101495.16;106578;1267;26119;-59
2022/03/24 05:15:06;;;;;;;89.10;41.50;;;;;;;0.02;57.23;101498.40;106747;1267;26222;-58
2022/03/24 05:17:38;;;;;;;88.80;41.40;;;;;;;0.00;57.46;101499.00;106586;1268;23180;-60
2022/03/24 05:20:11;;;;;;;89.90;43.40;;;;;;;-0.00;57.52;101500.40;106790;1267;22687;-58
2022/03/24 05:22:43;;;;;;;98.30;43.10;;;;;;;0.02;57.68;101497.53;106792;1267;26061;-57
2022/03/24 05:25:15;;;;;;;89.90;40.60;;;;;;;0.02;57.59;101499.11;107226;1255;22683;-54
2022/03/24 05:27:48;;;;;;;88.20;39.40;;;;;;;0.03;57.55;101503.96;106380;1265;25578;-53
2022/03/24 05:30:19;;;;;;;89.60;40.80;;;;;;;0.03;57.44;101503.02;107721;1267;22539;-56
2022/03/24 05:32:52;;;;;;;95.60;43.40;;;;;;;0.04;57.60;101504.60;106159;1265;23172;-57
2022/03/24 05:35:29;;;;;;;90.20;42.10;;;;;;;0.04;57.61;101506.42;106592;1266;25702;-56
2022/03/24 05:38:01;;;;;;;92.70;42.50;;;;;;;0.04;57.70;101509.71;107983;1267;24140;-55
2022/03/24 05:40:32;;;;;;;94.20;42.30;;;;;;;0.06;57.82;101514.90;106012;1268;22800;-56
2022/03/24 05:43:05;;;;;;;96.80;43.10;;;;;;;0.06;57.99;101518.36;109473;1266;25555;-56
2022/03/24 05:45:37;;;;;;;86.80;41.70;;;;;;;0.06;57.97;101519.70;106252;1265;22737;-56
2022/03/24 05:48:09;;;;;;;93.90;45.20;;;;;;;0.07;58.46;101520.16;105997;1267;22664;-55
2022/03/24 05:50:41;;;;;;;91.20;42.60;;;;;;;0.08;58.29;101520.81;106337;1267;24731;-59
2022/03/24 05:53:13;;;;;;;93.50;43.40;;;;;;;0.11;58.70;101524.52;106231;1268;24182;-56
2022/03/24 05:55:45;;;;;;;88.60;42.40;;;;;;;0.13;59.13;101523.30;106094;1268;22719;-55
2022/03/24 05:58:17;;;;;;;90.60;42.80;;;;;;;0.17;59.09;101519.95;106145;1268;23438;-56
2022/03/24 06:00:49;;;;;;;97.40;42.80;;;;;;;0.22;59.54;101521.10;106041;1267;22740;-56
2022/03/24 06:03:21;;;;;;;98.80;44.30;;;;;;;0.27;59.69;101521.94;106161;1268;22702;-58
2022/03/24 06:05:53;;;;;;;97.00;45.70;;;;;;;0.34;59.86;101516.89;106518;1267;25848;-58
2022/03/24 06:08:25;;;;;;;110.60;48.10;;;;;;;0.41;59.93;101514.30;106608;1266;22646;-57
2022/03/24 06:10:57;;;;;;;98.80;45.00;;;;;;;0.49;59.94;101513.02;106303;1268;22604;-57
2022/03/24 06:13:28;;;;;;;92.40;44.10;;;;;;;0.60;59.89;101516.89;106366;1268;23081;-57
2022/03/24 06:16:01;;;;;;;103.00;44.20;;;;;;;0.69;60.09;101520.48;106577;1268;22857;-55
2022/03/24 06:18:35;;;;;;;99.80;42.50;;;;;;;0.79;60.29;101519.70;106251;1268;23044;-59
2022/03/24 06:21:07;;;;;;;97.00;44.70;;;;;;;0.91;60.20;101522.77;106264;1266;22840;-57
2022/03/24 06:23:39;;;;;;;94.50;41.40;;;;;;;1.04;60.28;101523.15;106152;1268;22733;-57
2022/03/24 06:26:10;;;;;;;96.70;43.80;;;;;;;1.18;60.25;101527.66;106200;1266;22660;-57
2022/03/24 06:28:43;;;;;;;89.30;41.90;;;;;;;1.33;60.48;101524.20;106289;1268;22684;-56
2022/03/24 06:31:15;;;;;;;94.90;43.40;;;;;;;1.48;60.42;101534.49;106222;1268;25323;-57
2022/03/24 06:33:48;;;;;;;91.50;43.00;;;;;;;1.59;60.70;101534.86;106168;1268;22646;-57
2022/03/24 06:36:20;;;;;;;84.80;40.40;;;;;;;1.73;61.41;101538.61;106194;1268;22591;-57
2022/03/24 06:38:51;;;;;;;88.80;41.80;;;;;;;1.86;61.38;101539.52;106279;1267;25719;-54
2022/03/24 06:41:24;;;;;;;87.10;42.30;;;;;;;1.96;61.39;101537.12;106164;1267;22515;-57
2022/03/24 06:43:59;;;;;;;88.50;42.10;;;;;;;2.08;61.63;101538.48;106046;1268;22757;-55
2022/03/24 06:46:32;;;;;;;84.60;39.90;;;;;;;2.19;61.48;101539.45;106052;1268;26674;-56
2022/03/24 06:49:05;;;;;;;82.60;38.70;;;;;;;2.29;61.77;101542.79;106238;1267;22623;-55
2022/03/24 06:51:37;;;;;;;78.30;37.60;;;;;;;2.43;61.35;101541.84;106260;1268;22868;-57
2022/03/24 06:54:08;;;;;;;84.30;37.80;;;;;;;2.55;61.12;101539.57;106498;1265;22586;-56
2022/03/24 06:56:40;;;;;;;78.30;37.40;;;;;;;2.66;60.88;101539.18;106292;1268;22546;-55
2022/03/24 06:59:12;;;;;;;82.80;38.50;;;;;;;2.77;60.85;101543.60;106209;1267;24253;-57
2022/03/24 07:01:44;;;;;;;75.60;36.30;;;;;;;2.87;60.57;101542.56;106651;1265;22663;-56
2022/03/24 07:04:17;;;;;;;80.70;35.40;;;;;;;2.95;60.61;101544.45;106201;1267;22631;-57
2022/03/24 07:06:49;;;;;;;84.00;38.10;;;;;;;3.02;60.59;101548.14;106051;1268;25512;-57
2022/03/24 07:09:21;;;;;;;73.90;36.70;;;;;;;3.09;60.54;101551.21;106203;1268;22541;-56
2022/03/24 07:11:54;;;;;;;84.00;37.40;;;;;;;3.14;60.08;101549.07;106259;1267;24225;-56
2022/03/24 07:14:25;;;;;;;79.60;31.00;;;;;;;3.21;60.07;101550.88;108087;1266;23107;-56
2022/03/24 07:16:57;;;;;;;64.00;29.20;;;;;;;3.33;59.86;101550.05;106211;1267;22522;-56
2022/03/24 07:19:29;;;;;;;68.90;31.70;;;;;;;3.49;60.03;101558.46;108084;1266;25307;-57
2022/03/24 07:22:01;;;;;;;65.40;31.20;;;;;;;3.67;59.68;101559.48;106346;1267;24067;-56
2022/03/24 07:24:32;;;;;;;61.40;30.80;;;;;;;3.76;59.49;101561.13;106349;1267;25514;-58
2022/03/24 07:27:04;;;;;;;60.90;30.50;;;;;;;3.83;59.19;101562.52;106395;1268;26030;-57
2022/03/24 07:29:36;;;;;;;67.60;31.00;;;;;;;3.88;59.17;101560.43;107451;1267;22572;-55
2022/03/24 07:32:09;;;;;;;67.90;32.60;;;;;;;3.96;59.08;101564.11;106266;1268;22592;-57
2022/03/24 07:34:40;;;;;;;64.10;30.80;;;;;;;4.03;59.16;101565.66;106343;1267;25276;-57
2022/03/24 07:37:12;;;;;;;65.20;29.00;;;;;;;4.12;59.23;101570.43;106315;1268;25298;-57
2022/03/24 07:39:44;;;;;;;59.90;30.80;;;;;;;4.27;59.14;101570.81;106198;1268;25514;-57
2022/03/24 07:42:15;;;;;;;68.70;33.40;;;;;;;4.38;58.93;101572.71;106161;1267;24984;-57
2022/03/24 07:44:48;;;;;;;72.70;32.90;;;;;;;4.45;58.91;101569.43;106218;1267;22697;-56
2022/03/24 07:47:19;;;;;;;64.90;30.80;;;;;;;4.55;58.83;101566.22;106181;1268;24223;-57
2022/03/24 07:49:53;;;;;;;65.50;31.90;;;;;;;4.63;58.49;101565.83;106224;1267;22547;-57
2022/03/24 07:52:29;;;;;;;64.80;31.20;;;;;;;4.74;58.50;101565.27;106271;1267;22537;-56
2022/03/24 07:55:09;;;;;;;65.50;30.20;;;;;;;4.83;58.33;101565.04;106348;1267;22545;-57
2022/03/24 07:57:40;;;;;;;62.50;29.70;;;;;;;4.94;57.94;101562.42;106344;1267;24212;-57
2022/03/24 08:00:14;;;;;;;65.20;30.30;;;;;;;5.10;57.77;101562.83;106356;1268;22683;-58
2022/03/24 08:02:46;;;;;;;63.10;29.10;;;;;;;5.26;57.48;101561.31;106409;1267;22528;-58
2022/03/24 08:05:18;;;;;;;54.60;28.70;;;;;;;5.33;57.32;101563.78;106229;1268;22962;-58
2022/03/24 08:07:50;;;;;;;60.20;29.80;;;;;;;5.38;57.02;101567.05;106219;1268;25425;-60
2022/03/24 08:10:22;;;;;;;52.80;26.40;;;;;;;5.44;56.92;101562.95;106310;1267;22590;-60
2022/03/24 08:12:54;;;;;;;61.40;29.50;;;;;;;5.53;56.97;101565.63;106237;1267;22537;-59
2022/03/24 08:15:26;;;;;;;59.40;28.30;;;;;;;5.63;57.11;101565.02;106360;1268;24222;-58
2022/03/24 08:17:58;;;;;;;56.60;27.60;;;;;;;5.81;57.17;101562.69;106274;1268;25301;-56
2022/03/24 08:20:29;;;;;;;57.20;28.30;;;;;;;5.95;56.72;101565.24;106445;1268;25238;-54
2022/03/24 08:23:01;;;;;;;60.60;27.30;;;;;;;6.03;56.31;101564.09;106178;1268;22551;-57
2022/03/24 08:25:33;;;;;;;56.50;28.20;;;;;;;6.10;56.19;101565.27;106345;1268;25349;-58
2022/03/24 08:28:05;;;;;;;55.50;27.40;;;;;;;6.17;55.90;101563.89;106130;1268;22525;-56
2022/03/24 08:30:37;;;;;;;54.40;25.70;;;;;;;6.28;55.68;101565.50;106223;1268;24250;-53
2022/03/24 08:33:10;;;;;;;56.30;26.30;;;;;;;6.36;55.39;101568.06;106322;1268;22540;-56
2022/03/24 08:35:50;;;;;;;57.90;29.40;;;;;;;6.43;55.14;101567.16;106218;1268;24263;-57
2022/03/24 08:38:21;;;;;;;59.90;27.60;;;;;;;6.51;55.10;101568.48;106080;1268;25437;-57
2022/03/24 08:40:54;;;;;;;59.10;29.90;;;;;;;6.57;54.82;101569.74;106098;1268;25376;-56
2022/03/24 08:43:25;;;;;;;57.30;28.70;;;;;;;6.62;54.73;101570.78;106312;1268;24755;-53
2022/03/24 08:45:57;;;;;;;57.20;28.30;;;;;;;6.68;54.53;101570.52;106374;1268;23192;-58
2022/03/24 08:48:29;;;;;;;53.60;27.80;;;;;;;6.77;54.43;101569.58;106202;1268;25966;-56
2022/03/24 08:51:01;;;;;;;54.10;27.70;;;;;;;6.87;54.25;101570.05;106240;1268;22619;-59
2022/03/24 08:53:33;;;;;;;58.60;25.80;;;;;;;7.01;54.20;101568.08;106282;1268;24342;-58
2022/03/24 08:56:05;;;;;;;58.90;28.10;;;;;;;7.14;53.86;101570.05;106339;1268;24393;-57
2022/03/24 08:58:36;;;;;;;61.60;24.80;;;;;;;7.26;53.73;101568.25;106203;1268;22631;-58
2022/03/24 09:01:10;;;;;;;56.30;26.70;;;;;;;7.40;53.61;101570.00;106357;1268;25225;-54
2022/03/24 09:03:42;;;;;;;59.40;29.50;;;;;;;7.56;53.27;101566.20;106356;1265;22546;-54
2022/03/24 09:06:14;;;;;;;65.90;30.70;;;;;;;7.67;52.79;101569.70;106302;1267;24867;-56
2022/03/24 09:08:45;;;;;;;57.00;26.60;;;;;;;7.80;52.67;101569.38;106293;1268;24260;-54
2022/03/24 09:11:18;;;;;;;59.90;26.50;;;;;;;7.91;52.48;101571.12;106329;1268;26235;-58
2022/03/24 09:13:49;;;;;;;54.20;27.00;;;;;;;8.00;52.20;101573.46;106256;1268;25385;-58
2022/03/24 09:16:21;;;;;;;57.80;27.40;;;;;;;8.10;52.14;101571.17;106173;1268;22564;-55
2022/03/24 09:18:53;;;;;;;56.90;26.60;;;;;;;8.18;51.96;101579.04;106162;1268;22551;-57
2022/03/24 09:21:24;;;;;;;53.70;26.10;;;;;;;8.25;51.64;101576.36;106191;1268;25651;-56
2022/03/24 09:23:56;;;;;;;55.20;26.80;;;;;;;8.32;51.15;101580.45;106084;1268;25233;-54
2022/03/24 09:26:28;;;;;;;58.20;26.30;;;;;;;8.40;51.18;101575.00;106313;1268;22612;-56
2022/03/24 09:29:01;;;;;;;55.30;26.60;;;;;;;8.48;50.87;101576.50;106297;1268;22512;-53
2022/03/24 09:31:35;;;;;;;55.30;26.70;;;;;;;8.56;50.57;101579.01;106304;1268;22521;-57
2022/03/24 09:34:09;;;;;;;50.10;25.00;;;;;;;8.62;50.60;101577.84;106320;1268;25611;-56
2022/03/24 09:36:40;;;;;;;53.70;25.20;;;;;;;8.70;50.44;101578.04;106318;1268;25451;-56
2022/03/24 09:39:14;;;;;;;48.00;22.00;;;;;;;8.79;49.93;101579.56;106332;1268;22547;-56
2022/03/24 09:41:48;;;;;;;52.20;23.00;;;;;;;8.91;49.76;101580.15;106211;1267;448564;-56
2022/03/24 09:44:19;;;;;;;53.70;25.10;;;;;;;9.07;49.42;101579.11;106378;1267;26587;-56
2022/03/24 09:46:51;;;;;;;55.00;25.70;;;;;;;9.23;49.02;101582.36;106330;1268;24871;-55
2022/03/24 09:49:23;;;;;;;57.30;26.00;;;;;;;9.31;48.72;101583.20;106366;1266;22681;-66
2022/03/24 09:51:54;;;;;;;50.10;23.90;;;;;;;9.38;48.77;101580.44;106347;1266;22553;-55
2022/03/24 09:54:26;;;;;;;48.70;23.50;;;;;;;9.48;48.45;101577.64;106464;1268;22636;-64
2022/03/24 09:56:58;;;;;;;48.80;24.20;;;;;;;9.55;48.29;101579.73;106512;1268;22566;-63
2022/03/24 09:59:31;;;;;;;51.40;24.20;;;;;;;9.67;48.38;101579.42;106437;1268;23088;-62
2022/03/24 10:02:04;;;;;;;55.40;24.20;;;;;;;9.79;47.76;101573.36;106362;1268;22528;-62
2022/03/24 10:04:49;;;;;;;50.50;23.30;;;;;;;9.88;47.80;101577.96;106526;1266;26023;-66
2022/03/24 10:07:25;;;;;;;48.90;22.00;;;;;;;9.94;47.31;101574.42;106237;1267;22527;-66
2022/03/24 10:10:01;;;;;;;48.10;21.70;;;;;;;10.08;46.12;101578.40;106312;1268;22559;-64
2022/03/24 10:12:37;;;;;;;44.00;21.00;;;;;;;10.20;45.73;101578.95;106276;1268;22534;-65
2022/03/24 10:15:12;;;;;;;39.30;19.00;;;;;;;10.24;45.36;101579.06;106358;1267;24210;-67
2022/03/24 10:17:51;;;;;;;44.00;19.30;;;;;;;10.30;44.74;101579.92;106463;1266;22980;-63
2022/03/24 10:20:28;;;;;;;41.20;18.00;;;;;;;10.34;44.35;101577.23;106309;1268;22553;-66
2022/03/24 10:23:02;;;;;;;46.70;20.00;;;;;;;10.39;44.16;101572.77;106222;1268;25486;-64
2022/03/24 10:25:38;;;;;;;47.90;22.20;;;;;;;10.48;44.27;101570.17;106242;1268;25340;-65
2022/03/24 10:28:11;;;;;;;41.40;20.00;;;;;;;10.51;44.34;101562.13;105992;1268;22594;-64
2022/03/24 10:30:52;;;;;;;44.20;19.20;;;;;;;10.58;44.02;101557.02;106192;1268;22667;-64
2022/03/24 10:33:31;;;;;;;44.90;19.40;;;;;;;10.71;43.62;101557.73;106294;1267;22538;-64
2022/03/24 10:36:14;;;;;;;42.10;16.90;;;;;;;10.87;42.53;101557.53;106279;1270;22720;-64
2022/03/24 10:38:48;;;;;;;37.90;16.30;;;;;;;10.96;42.25;101558.59;106166;1268;24395;-64
2022/03/24 10:41:25;;;;;;;40.80;17.70;;;;;;;10.99;41.33;101554.46;106085;1270;22620;-64
2022/03/24 10:43:59;;;;;;;45.20;17.10;;;;;;;11.05;41.36;101556.66;106156;1266;25946;-64
2022/03/24 10:46:32;;;;;;;41.00;18.00;;;;;;;11.15;41.39;101549.44;106241;1268;22527;-64
2022/03/24 10:49:18;;;;;;;41.70;17.80;;;;;;;11.27;41.26;101549.20;106129;1270;22668;-64
2022/03/24 10:51:52;;;;;;;38.50;16.50;;;;;;;11.35;40.48;101550.34;106099;1267;25375;-64
2022/03/24 10:54:44;;;;;;;47.20;21.00;;;;;;;11.46;40.34;101547.98;106200;1268;22538;-65
2022/03/24 10:57:19;;;;;;;46.50;20.20;;;;;;;11.58;40.51;101544.36;106164;1268;22639;-64
2022/03/24 10:59:58;;;;;;;40.70;20.70;;;;;;;11.71;40.93;101544.06;106287;1268;22526;-63
2022/03/24 11:02:31;;;;;;;39.40;18.60;;;;;;;11.77;40.44;101538.88;106155;1270;22561;-64
2022/03/24 11:05:12;;;;;;;40.30;18.30;;;;;;;11.81;40.24;101536.89;106137;1268;27898;-64
2022/03/24 11:07:54;;;;;;;49.20;21.60;;;;;;;11.89;40.09;101537.31;106159;1268;25494;-64
2022/03/24 11:10:26;;;;;;;47.30;21.80;;;;;;;11.98;40.25;101531.61;106150;1268;22611;-65
2022/03/24 11:13:04;;;;;;;45.80;20.50;;;;;;;11.99;39.92;101529.73;106130;1270;24275;-63
2022/03/24 11:15:39;;;;;;;48.50;21.30;;;;;;;11.99;39.65;101527.56;106152;1270;22560;-64
2022/03/24 11:18:12;;;;;;;43.30;20.30;;;;;;;12.03;39.45;101529.41;106231;1268;25428;-65
2022/03/24 11:20:46;;;;;;;40.50;18.20;;;;;;;12.07;39.03;101525.16;106287;1269;22525;-64
2022/03/24 11:23:35;;;;;;;40.90;19.60;;;;;;;12.09;38.98;101522.29;106247;1268;24192;-65
2022/03/24 11:26:07;;;;;;;42.50;18.10;;;;;;;12.14;38.66;101517.39;106658;1268;22504;-63
2022/03/24 11:28:41;;;;;;;45.60;20.90;;;;;;;12.24;38.01;101516.53;106244;1268;22528;-58
2022/03/24 11:31:14;;;;;;;39.40;17.90;;;;;;;12.31;38.10;101514.73;106047;1270;22601;-58